Skip Navigation Links
NOAA logo - Click to go to the NOAA homepage
NOAA's National Weather Service
Alaska Aviation Weather Unit
  NWS logo - Click to go to the NWS homepage
Left Navbar Graphic     08 AKDT = 16 GMT

   
NOAA is celebrating 200 years of science, service, and stewardship. Visit the NOAA 200th celebration Web site to learn more.
USA.gov is the U.S. Government's official Web portal to all Federal, state and local government Web resources and services.
Facebook
NWS on Facebook

Important Change Regarding the AAWU Web Presence

 

Over the last several months, the AAWU has been working to navigate its webpages to a nationally supported server. Security, as well as other needs, have necessitated the change.  In the process, we have made an effort to enhance the functionality of our website, as well as some of our products. As of June 20, 2017, aawu.arh.noaa.gov will be discontinued. The new AAWU web address is weather.gov/aawu. It is now live and will run in-parallel with the old site until it is discontinued. Please send any feedback or questions regarding the new webpages to nws.ar.aawu.webauthors@noaa.gov.  Thank you for your patience during this time of transition.
AAWU Home :: Display TAF Add Bookmark
TAF PAPG 231605Z 2316/2412 VRB03KT 5SM -SHRA BR SCT005 OVC015
      TEMPO 2316/2318 2SM -SHRA BR BKN005 OVC015
     FM231900 VRB05KT P6SM VCSH SCT015 OVC035
     FM232300 22006KT P6SM SCT020 BKN050 WS020/32025KT=

SPECI PAPG 231009Z AUTO 00000KT 1/2SM -RA FG SCT004 OVC026 09/09 A2986 RMK AO2 P0000= SPECI PAPG 231029Z AUTO 00000KT 1SM -RA BR OVC026 10/09 A2985 RMK AO2 P0002= SPECI PAPG 231036Z AUTO VRB04KT 3/4SM -RA BR FEW003 OVC026 09/09 A2985 RMK AO2 P0002= METAR PAPG 231056Z AUTO 00000KT 3/4SM -RA BR BKN003 BKN028 BKN110 08/08 A2984 RMK AO2 SLP108 P0003 T00830083= SPECI PAPG 231108Z AUTO 00000KT 1SM -RA BR BKN003 08/08 A2983 RMK AO2 P0001= SPECI PAPG 231124Z AUTO 00000KT 1 1/4SM RA BR BKN003 08/08 A2982 RMK AO2 P0002= SPECI PAPG 231138Z AUTO 00000KT 2SM -RA BR SCT003 BKN022 BKN028 08/08 A2982 RMK AO2 P0004= METAR PAPG 231156Z AUTO 00000KT 4SM RA BR FEW023 BKN028 OVC110 08/08 A2981 RMK AO2 SLP098 P0007 60024 70068 T00830083 10106 20083 58026= SPECI PAPG 231216Z AUTO 03003KT 5SM RA BR FEW028 OVC110 08/08 A2980 RMK AO2 P0002= SPECI PAPG 231219Z AUTO 00000KT 2 1/2SM RA BR FEW004 SCT028 OVC110 08/08 A2980 RMK AO2 VIS 1 1/4V5 P0003= SPECI PAPG 231226Z AUTO 00000KT 1 1/4SM RA BR SCT004 BKN028 OVC110 08/08 A2980 RMK AO2 P0005= SPECI PAPG 231233Z AUTO 00000KT 1SM RA BR BKN004 OVC110 08/08 A2980 RMK AO2 P0007= SPECI PAPG 231254Z AUTO 00000KT 3/4SM RA BR OVC006 08/08 A2979 RMK AO2 CIG 003V007 P0014= METAR PAPG 231256Z AUTO 00000KT 3/4SM RA BR OVC006 08/08 A2979 RMK AO2 CIG 003V007 SLP092 P0014 T00830083= SPECI PAPG 231327Z AUTO 00000KT 1SM RA BR OVC011 08/08 A2978 RMK AO2 CIG 005V013 P0011= SPECI PAPG 231330Z AUTO 00000KT 1 1/4SM RA BR OVC011 08/08 A2978 RMK AO2 P0012= SPECI PAPG 231340Z AUTO 00000KT 3SM RA BR BKN011 BKN110 08/08 A2978 RMK AO2 P0015= METAR PAPG 231356Z AUTO 00000KT 5SM -RA BR FEW008 SCT014 OVC110 08/08 A2978 RMK AO2 SLP087 P0017 T00830083= SPECI PAPG 231410Z 00000KT 3SM -RA BR SCT005 BKN016 OVC110 08/08 A2978 RMK AO2 P0002= METAR PAPG 231456Z 00000KT 3SM RA BR SCT008 BKN016 OVC110 09/09 A2978 RMK AO2 SLP086 P0011 60042 T00890089 56005= METAR PAPG 231556Z 07005KT 4SM -RA BR OVC005 09/08 A2977 RMK AO2 SLP086 P0004 T00890083=
 Alaska TAF Map

NOAA's National Weather Service
Alaska Aviation Weather Unit
6930 Sand Lake Road
Anchorage, AK 99502-1845
Disclaimer
Credits
Glossary
Privacy Policy
About Us
Career Opportunities
Contact AAWU Internet Services Site last modified: April, 17th 2012